createdAt,value
2023-03-07T00:00:51.458Z,23.07
2023-03-07T00:03:58.071Z,21.68
2023-03-07T00:07:03.534Z,21.95
2023-03-07T00:10:09.656Z,19.48
2023-03-07T00:13:16.103Z,15.15
2023-03-07T00:16:24.779Z,16.00
2023-03-07T00:19:31.599Z,16.00
2023-03-07T00:22:38.012Z,17.57
2023-03-07T00:25:38.099Z,17.37
2023-03-07T00:28:44.007Z,15.15
2023-03-07T00:31:49.065Z,16.65
2023-03-07T00:34:56.534Z,20.60
2023-03-07T00:38:01.278Z,16.15
2023-03-07T00:41:18.851Z,15.32
2023-03-07T00:44:18.352Z,14.85
2023-03-07T00:47:05.422Z,15.68
2023-03-07T00:49:57.509Z,18.35
2023-03-07T00:52:44.829Z,18.98
2023-03-07T00:55:44.139Z,14.95
2023-03-07T00:58:51.276Z,16.57
2023-03-07T01:01:57.705Z,14.38
2023-03-07T01:05:03.979Z,18.15
2023-03-07T01:08:10.068Z,21.37
2023-03-07T01:11:18.995Z,19.85
2023-03-07T01:14:25.825Z,15.50
2023-03-07T01:17:32.703Z,18.50
2023-03-07T01:20:39.282Z,16.80
2023-03-07T01:23:45.851Z,16.90
2023-03-07T01:26:52.223Z,17.62
2023-03-07T01:29:58.366Z,19.42
2023-03-07T01:33:06.049Z,17.55
2023-03-07T01:36:12.252Z,20.88
2023-03-07T01:39:28.319Z,17.92
2023-03-07T01:42:36.223Z,21.65
2023-03-07T01:45:55.278Z,18.75
2023-03-07T01:49:18.294Z,17.48
2023-03-07T01:52:41.617Z,16.30
2023-03-07T01:55:49.201Z,21.48
2023-03-07T01:58:55.877Z,20.85
2023-03-07T02:02:01.720Z,20.05
2023-03-07T02:05:32.100Z,26.52
2023-03-07T02:11:43.301Z,23.57
2023-03-07T02:14:49.308Z,25.15
2023-03-07T02:17:58.201Z,23.52
2023-03-07T02:21:24.504Z,23.60
2023-03-07T02:27:59.553Z,21.85
2023-03-07T02:31:18.094Z,18.90
2023-03-07T02:34:41.916Z,22.32
2023-03-07T02:37:53.294Z,19.80
2023-03-07T02:40:58.720Z,18.25
2023-03-07T02:43:59.641Z,16.48
2023-03-07T02:46:46.619Z,19.20
2023-03-07T02:49:39.963Z,17.15
2023-03-07T02:52:35.000Z,19.65
2023-03-07T02:55:40.317Z,19.32
2023-03-07T02:58:48.400Z,18.23
2023-03-07T03:01:54.210Z,16.73
2023-03-07T03:04:59.875Z,20.17
2023-03-07T03:08:07.719Z,16.77
2023-03-07T03:11:13.626Z,26.23
2023-03-07T03:14:19.884Z,24.75
2023-03-07T03:17:26.481Z,21.75
2023-03-07T03:20:32.257Z,22.82
2023-03-07T03:23:40.638Z,18.07
2023-03-07T03:26:45.715Z,18.37
2023-03-07T03:29:53.382Z,18.40
2023-03-07T03:33:01.009Z,18.15
2023-03-07T03:36:07.316Z,17.60
2023-03-07T03:39:15.936Z,21.87
2023-03-07T03:42:24.082Z,17.30
2023-03-07T03:45:31.199Z,24.02
2023-03-07T03:48:36.971Z,29.30
2023-03-07T03:51:43.360Z,29.82
2023-03-07T03:54:49.443Z,34.78
2023-03-07T03:57:56.969Z,40.85
2023-03-07T04:01:02.509Z,37.93
2023-03-07T04:04:03.865Z,42.03
2023-03-07T04:07:11.625Z,38.65
2023-03-07T04:10:20.213Z,35.50
2023-03-07T04:13:27.473Z,40.00
2023-03-07T04:16:33.637Z,39.00
2023-03-07T04:19:40.983Z,33.25
2023-03-07T04:22:46.873Z,36.73
2023-03-07T04:25:55.330Z,35.45
2023-03-07T04:29:03.129Z,31.42
2023-03-07T04:32:12.957Z,28.95
2023-03-07T04:35:15.382Z,26.52
2023-03-07T04:38:22.602Z,30.50
2023-03-07T04:41:33.927Z,37.42
2023-03-07T04:44:51.173Z,28.52
2023-03-07T04:47:56.967Z,30.17
2023-03-07T04:51:08.479Z,29.27
2023-03-07T04:54:14.865Z,30.43
2023-03-07T04:57:22.632Z,24.70
2023-03-07T05:00:29.157Z,25.35
2023-03-07T05:03:35.505Z,22.62
2023-03-07T05:06:42.524Z,25.45
2023-03-07T05:09:48.370Z,24.57
2023-03-07T05:12:56.051Z,29.00
2023-03-07T05:16:07.409Z,29.55
2023-03-07T05:19:14.059Z,28.73
2023-03-07T05:22:21.584Z,27.75
2023-03-07T05:25:28.659Z,26.35
2023-03-07T05:28:37.237Z,23.80
2023-03-07T05:31:43.388Z,27.27
2023-03-07T05:34:52.551Z,26.77
2023-03-07T05:37:58.616Z,24.55
2023-03-07T05:41:04.267Z,22.62
2023-03-07T05:44:10.494Z,21.55
2023-03-07T05:47:15.886Z,24.98
2023-03-07T05:50:22.795Z,25.50
2023-03-07T05:53:29.065Z,24.57
2023-03-07T05:56:34.988Z,20.10
2023-03-07T05:59:40.116Z,20.82
2023-03-07T06:02:45.600Z,19.65
2023-03-07T06:05:51.638Z,20.57
2023-03-07T06:08:51.149Z,23.57
2023-03-07T06:15:01.626Z,19.25
2023-03-07T06:18:09.302Z,18.77
2023-03-07T06:21:18.416Z,21.42
2023-03-07T06:24:24.432Z,22.02
2023-03-07T06:27:30.572Z,21.85
2023-03-07T06:30:37.684Z,34.55
2023-03-07T06:33:44.349Z,37.42
2023-03-07T06:36:51.532Z,26.42
2023-03-07T06:39:58.029Z,16.55
2023-03-07T06:43:03.986Z,21.17
2023-03-07T06:46:09.714Z,19.67
2023-03-07T06:49:15.190Z,21.40
2023-03-07T06:52:21.858Z,18.07
2023-03-07T06:55:29.493Z,20.35
2023-03-07T06:58:35.795Z,19.73
2023-03-07T07:01:42.878Z,21.95
2023-03-07T07:04:50.153Z,22.02
2023-03-07T07:07:56.132Z,23.87
2023-03-07T07:11:02.148Z,15.88
2023-03-07T07:14:09.695Z,25.05
2023-03-07T07:17:17.074Z,18.85
2023-03-07T07:20:25.079Z,17.32
2023-03-07T07:23:26.335Z,15.65
2023-03-07T07:26:19.633Z,18.45
2023-03-07T07:29:24.698Z,18.45
2023-03-07T07:33:18.412Z,18.35
2023-03-07T07:36:25.764Z,19.10
2023-03-07T07:39:33.250Z,18.37
2023-03-07T07:42:38.275Z,24.67
2023-03-07T07:45:49.062Z,24.57
2023-03-07T07:48:55.834Z,19.23
2023-03-07T07:52:01.514Z,28.67
2023-03-07T07:55:08.749Z,23.35
2023-03-07T07:58:13.844Z,24.20
2023-03-07T08:01:34.207Z,22.80
2023-03-07T08:07:45.820Z,19.98
2023-03-07T08:10:51.898Z,22.50
2023-03-07T08:13:58.339Z,23.18
2023-03-07T08:17:04.599Z,17.95
2023-03-07T08:20:13.134Z,24.60
2023-03-07T08:23:18.357Z,22.70
2023-03-07T08:26:25.791Z,18.73
2023-03-07T08:29:32.320Z,23.92
2023-03-07T08:32:37.194Z,22.73
2023-03-07T08:35:42.313Z,23.75
2023-03-07T08:38:47.568Z,21.10
2023-03-07T08:41:52.965Z,26.17
2023-03-07T08:44:58.440Z,26.37
2023-03-07T08:48:10.415Z,25.45
2023-03-07T08:51:23.158Z,22.75
2023-03-07T08:54:29.161Z,21.73
2023-03-07T08:57:35.447Z,23.70
2023-03-07T09:00:40.710Z,19.55
2023-03-07T09:03:46.965Z,28.25
2023-03-07T09:06:52.985Z,23.07
2023-03-07T09:09:58.833Z,18.42
2023-03-07T09:13:05.575Z,22.90
2023-03-07T09:16:11.178Z,25.17
2023-03-07T09:19:16.763Z,20.68
2023-03-07T09:22:23.479Z,21.20
2023-03-07T09:25:29.671Z,32.70
2023-03-07T09:28:35.873Z,23.25
2023-03-07T09:31:42.085Z,20.95
2023-03-07T09:34:48.981Z,20.82
2023-03-07T09:37:54.515Z,25.72
2023-03-07T09:41:02.453Z,19.45
2023-03-07T09:44:33.036Z,19.60
2023-03-07T09:48:07.017Z,22.70
2023-03-07T09:51:28.961Z,21.77
2023-03-07T09:54:41.485Z,19.65
2023-03-07T09:57:54.720Z,19.82
2023-03-07T10:01:00.670Z,21.75
2023-03-07T10:04:21.134Z,21.17
2023-03-07T10:07:19.127Z,20.48
2023-03-07T10:10:21.119Z,22.62
2023-03-07T10:13:51.717Z,20.25
2023-03-07T10:17:43.162Z,25.92
2023-03-07T10:20:58.554Z,23.60
2023-03-07T10:24:26.784Z,23.67
2023-03-07T10:27:32.090Z,24.07
2023-03-07T10:30:37.846Z,22.82
2023-03-07T10:33:43.978Z,29.65
2023-03-07T10:37:08.156Z,21.07
2023-03-07T10:40:11.486Z,25.15
2023-03-07T10:43:17.181Z,22.13
2023-03-07T10:46:41.551Z,28.70
2023-03-07T10:50:05.536Z,29.60
2023-03-07T10:53:10.832Z,23.65
2023-03-07T10:56:33.510Z,26.05
2023-03-07T10:59:40.340Z,25.27
2023-03-07T11:02:57.182Z,25.00
2023-03-07T11:06:04.007Z,23.47
2023-03-07T11:09:09.103Z,26.42
2023-03-07T11:12:27.242Z,21.33
2023-03-07T11:15:35.902Z,21.30
2023-03-07T11:18:55.800Z,21.10
2023-03-07T11:25:20.432Z,22.13
2023-03-07T11:28:49.620Z,18.95
2023-03-07T11:32:06.618Z,21.15
2023-03-07T11:35:22.509Z,16.75
2023-03-07T11:38:52.167Z,19.82
2023-03-07T11:42:02.448Z,21.65
2023-03-07T11:45:16.968Z,21.52
2023-03-07T11:48:58.763Z,21.50
2023-03-07T11:52:43.619Z,22.35
2023-03-07T11:56:12.564Z,22.98
2023-03-07T11:59:46.617Z,19.12
2023-03-07T12:03:00.837Z,18.27
2023-03-07T12:06:34.541Z,17.00
2023-03-07T12:10:04.534Z,17.45
2023-03-07T12:13:31.980Z,22.07
2023-03-07T12:16:59.374Z,18.45
2023-03-07T12:20:32.853Z,21.75
2023-03-07T12:23:48.985Z,16.77
2023-03-07T12:27:18.443Z,18.75
2023-03-07T12:31:01.433Z,24.60
2023-03-07T12:34:12.248Z,14.93
2023-03-07T12:37:32.131Z,17.30
2023-03-07T12:40:59.603Z,23.27
2023-03-07T12:44:09.403Z,18.92
2023-03-07T12:47:43.806Z,20.57
2023-03-07T12:51:26.735Z,23.02
2023-03-07T12:54:48.038Z,19.57
2023-03-07T12:57:58.048Z,20.88
2023-03-07T13:01:12.950Z,16.12
2023-03-07T13:04:34.068Z,24.57
2023-03-07T13:07:46.859Z,20.92
2023-03-07T13:10:52.347Z,16.37
2023-03-07T13:14:05.237Z,15.63
2023-03-07T13:17:10.063Z,21.57
2023-03-07T13:20:17.507Z,18.62
2023-03-07T13:23:30.559Z,24.27
2023-03-07T13:26:38.193Z,20.45
2023-03-07T13:30:19.945Z,17.20
2023-03-07T13:33:36.567Z,15.05
2023-03-07T13:36:52.726Z,18.07
2023-03-07T13:39:57.782Z,16.40
2023-03-07T13:43:03.264Z,16.65
2023-03-07T13:46:52.480Z,17.02
2023-03-07T13:49:59.292Z,16.62
2023-03-07T13:53:04.771Z,17.40
2023-03-07T13:56:55.501Z,18.37
2023-03-07T14:00:42.213Z,17.95
2023-03-07T14:03:54.798Z,18.12
2023-03-07T14:07:21.001Z,15.88
2023-03-07T14:10:39.271Z,21.37
2023-03-07T14:14:14.568Z,20.88
2023-03-07T14:17:27.044Z,15.72
2023-03-07T14:21:00.034Z,12.53
2023-03-07T14:24:07.201Z,16.52
2023-03-07T14:27:16.133Z,14.70
2023-03-07T14:30:29.546Z,16.10
2023-03-07T14:33:36.271Z,15.38
2023-03-07T14:36:46.124Z,12.82
2023-03-07T14:40:30.105Z,15.28
2023-03-07T14:44:11.807Z,14.83
2023-03-07T14:47:39.144Z,14.80
2023-03-07T14:50:47.571Z,14.03
2023-03-07T14:53:53.176Z,20.12
2023-03-07T14:56:59.735Z,20.90
2023-03-07T15:00:37.060Z,15.18
2023-03-07T15:03:43.485Z,12.93
2023-03-07T15:06:57.225Z,23.30
2023-03-07T15:10:03.489Z,24.30
2023-03-07T15:13:13.483Z,17.15
2023-03-07T15:16:27.476Z,18.82
2023-03-07T15:19:36.897Z,28.20
2023-03-07T15:22:47.827Z,35.70
2023-03-07T15:25:54.494Z,23.75
2023-03-07T15:29:00.585Z,26.15
2023-03-07T15:32:14.741Z,24.90
2023-03-07T15:35:30.621Z,26.68
2023-03-07T15:38:39.127Z,25.97
2023-03-07T15:41:48.440Z,22.10
2023-03-07T15:44:54.716Z,15.83
2023-03-07T15:48:01.199Z,17.98
2023-03-07T15:51:09.429Z,24.27
2023-03-07T15:54:39.120Z,27.93
2023-03-07T15:57:52.679Z,23.00
2023-03-07T16:00:58.685Z,20.40
2023-03-07T16:04:11.297Z,23.20
2023-03-07T16:07:17.923Z,26.75
2023-03-07T16:10:24.306Z,30.10
2023-03-07T16:13:31.911Z,28.92
2023-03-07T16:16:39.581Z,26.37
2023-03-07T16:22:59.272Z,25.15
2023-03-07T16:26:04.546Z,25.92
2023-03-07T16:29:10.758Z,26.25
2023-03-07T16:32:17.252Z,33.15
2023-03-07T16:35:34.351Z,30.57
2023-03-07T16:38:40.212Z,34.05
2023-03-07T16:41:47.205Z,30.57
2023-03-07T16:44:53.853Z,43.05
2023-03-07T16:48:01.557Z,56.30
2023-03-07T16:51:07.328Z,43.30
2023-03-07T16:54:14.554Z,28.98
2023-03-07T16:57:24.125Z,29.45
2023-03-07T17:00:33.800Z,33.28
2023-03-07T17:03:40.297Z,31.60
2023-03-07T17:06:48.757Z,30.15
2023-03-07T17:09:53.612Z,30.62
2023-03-07T17:13:00.472Z,30.90
2023-03-07T17:16:07.009Z,29.05
2023-03-07T17:19:12.300Z,35.90
2023-03-07T17:22:20.239Z,36.93
2023-03-07T17:25:25.590Z,50.43
2023-03-07T17:28:32.935Z,45.12
2023-03-07T17:31:39.520Z,46.18
2023-03-07T17:34:46.660Z,38.30
2023-03-07T17:37:53.959Z,40.55
2023-03-07T17:40:59.388Z,43.90
2023-03-07T17:44:04.988Z,37.63
2023-03-07T17:47:11.545Z,34.75
2023-03-07T17:50:17.209Z,27.93
2023-03-07T17:53:24.023Z,31.23
2023-03-07T17:56:30.342Z,31.55
2023-03-07T17:59:36.036Z,31.73
2023-03-07T18:02:42.334Z,46.88
2023-03-07T18:05:48.721Z,107.37
2023-03-07T18:08:53.851Z,46.85
2023-03-07T18:12:00.648Z,35.30
2023-03-07T18:15:07.336Z,32.40
2023-03-07T18:18:14.087Z,32.58
2023-03-07T18:21:22.925Z,38.95
2023-03-07T18:24:42.596Z,53.52
2023-03-07T18:27:48.199Z,84.40
2023-03-07T18:30:55.216Z,52.13
2023-03-07T18:34:08.192Z,52.08
2023-03-07T18:37:15.612Z,54.63
2023-03-07T18:40:22.569Z,64.10
2023-03-07T18:43:28.335Z,45.17
2023-03-07T18:46:39.547Z,46.48
2023-03-07T18:49:46.046Z,35.48
2023-03-07T18:52:53.004Z,49.10
2023-03-07T18:56:00.117Z,43.25
2023-03-07T18:59:08.387Z,58.80
2023-03-07T19:02:13.131Z,61.83
2023-03-07T19:05:19.257Z,52.75
2023-03-07T19:08:25.086Z,109.80
2023-03-07T19:11:33.634Z,113.32
2023-03-07T19:14:40.615Z,47.25
2023-03-07T19:17:45.569Z,34.43
2023-03-07T19:20:56.200Z,35.33
2023-03-07T19:24:02.669Z,65.40
2023-03-07T19:27:07.481Z,61.13
2023-03-07T19:30:13.304Z,90.55
2023-03-07T19:33:19.107Z,110.37
2023-03-07T19:36:30.012Z,81.17
2023-03-07T19:39:36.174Z,75.17
2023-03-07T19:42:41.891Z,51.55
2023-03-07T19:45:48.247Z,44.75
2023-03-07T19:48:54.897Z,41.58
2023-03-07T19:52:01.614Z,41.33
2023-03-07T19:55:07.586Z,38.02
2023-03-07T19:58:13.764Z,39.80
2023-03-07T20:01:27.742Z,53.17
2023-03-07T20:04:34.324Z,97.57
2023-03-07T20:07:39.941Z,51.73
2023-03-07T20:10:45.484Z,49.60
2023-03-07T20:13:53.194Z,56.18
2023-03-07T20:16:58.690Z,52.43
2023-03-07T20:20:06.380Z,56.63
2023-03-07T20:23:04.593Z,49.80
2023-03-07T20:26:23.791Z,38.25
2023-03-07T20:29:31.625Z,36.17
2023-03-07T20:32:38.181Z,35.48
2023-03-07T20:35:45.123Z,42.50
2023-03-07T20:38:45.094Z,39.00
2023-03-07T20:41:51.641Z,42.03
2023-03-07T20:44:57.684Z,33.20
2023-03-07T20:48:03.642Z,36.75
2023-03-07T20:51:08.652Z,40.63
2023-03-07T20:54:20.119Z,39.20
2023-03-07T20:57:26.123Z,39.67
2023-03-07T21:00:32.336Z,44.48
2023-03-07T21:03:38.282Z,48.17
2023-03-07T21:06:46.533Z,55.95
2023-03-07T21:09:46.032Z,46.85
2023-03-07T21:12:39.755Z,47.55
2023-03-07T21:15:47.952Z,45.17
2023-03-07T21:18:54.643Z,44.60
2023-03-07T21:22:00.486Z,41.80
2023-03-07T21:25:06.523Z,44.05
2023-03-07T21:28:13.183Z,44.30
2023-03-07T21:31:31.075Z,45.63
2023-03-07T21:34:37.819Z,41.58
2023-03-07T21:37:44.672Z,50.50
2023-03-07T21:40:50.602Z,48.48
2023-03-07T21:43:57.166Z,48.05
2023-03-07T21:47:03.505Z,58.95
2023-03-07T21:50:11.090Z,62.00
2023-03-07T21:53:16.805Z,59.42
2023-03-07T21:56:25.340Z,57.90
2023-03-07T21:59:31.310Z,51.92
2023-03-07T22:02:37.054Z,36.60
2023-03-07T22:05:36.440Z,40.23
2023-03-07T22:08:22.363Z,37.45
2023-03-07T22:11:16.671Z,40.12
2023-03-07T22:14:04.500Z,37.60
2023-03-07T22:16:57.298Z,38.85
2023-03-07T22:19:44.570Z,42.75
2023-03-07T22:22:37.029Z,45.85
2023-03-07T22:25:30.553Z,80.00
2023-03-07T22:28:36.680Z,115.95
2023-03-07T22:31:41.901Z,98.52
2023-03-07T22:34:47.343Z,64.65
2023-03-07T22:37:52.663Z,66.62
2023-03-07T22:40:58.296Z,53.35
2023-03-07T22:44:03.122Z,50.15
2023-03-07T22:47:08.418Z,41.77
2023-03-07T22:50:13.516Z,49.80
2023-03-07T22:53:18.362Z,40.28
2023-03-07T22:56:34.701Z,52.67
2023-03-07T22:59:39.461Z,47.78
2023-03-07T23:02:46.057Z,49.80
2023-03-07T23:05:52.046Z,51.28
2023-03-07T23:09:02.969Z,59.23
2023-03-07T23:12:09.141Z,38.02
2023-03-07T23:15:15.323Z,39.05
2023-03-07T23:18:20.965Z,59.70
2023-03-07T23:21:27.380Z,74.53
2023-03-07T23:24:32.961Z,65.97
2023-03-07T23:27:39.580Z,64.17
2023-03-07T23:30:45.758Z,60.23
2023-03-07T23:33:51.660Z,66.67
2023-03-07T23:36:58.354Z,74.47
2023-03-07T23:40:05.795Z,68.37
2023-03-07T23:43:12.254Z,58.50
2023-03-07T23:46:18.873Z,51.30
2023-03-07T23:49:26.361Z,40.45
2023-03-07T23:52:31.472Z,41.75
2023-03-07T23:55:37.377Z,38.02
2023-03-07T23:58:43.211Z,36.73
